Time;durP1;ratioP1;P1;durP2;ratioP2;P2;SDS_P1;SDS_P2;PMS_P1;PMS_P2;Temp;Humidity;BMP_temperature;BMP_pressure;BME280_temperature;BME280_humidity;BME280_pressure;Samples;Min_cycle;Max_cycle;Signal;HPM_P1;HPM_P2
2021/09/12 00:00:10;;;;;;;;;;;;;;;14.51;87.37;97197.06;30001;983;1853;-65
2021/09/12 00:00:42;;;;;;;;;;;;;;;14.52;87.19;97190.50;30001;983;1880;-64
2021/09/12 00:01:12;;;;;;;;;;;;;;;14.52;87.39;97186.97;30001;983;1875;-65
2021/09/12 00:01:43;;;;;;;;;;;;;;;14.48;87.20;97180.50;30001;982;1880;-63
2021/09/12 00:02:14;;;;;;;;;;;;;;;14.48;87.47;97192.22;30001;982;1875;-63
2021/09/12 00:02:45;;;;;;;;;;;;;;;14.46;87.72;97189.00;30001;986;1880;-64
2021/09/12 00:03:16;;;;;;;;;;;;;;;14.47;87.78;97190.63;30001;982;1858;-63
2021/09/12 00:03:47;;;;;;;;;;;;;;;14.46;87.80;97183.53;30001;982;1858;-63
2021/09/12 00:04:18;;;;;;;;;;;;;;;14.47;87.69;97184.34;30001;983;1875;-64
2021/09/12 00:04:49;;;;;;;;;;;;;;;14.47;87.90;97182.41;30001;983;1879;-64
2021/09/12 00:05:20;;;;;;;;;;;;;;;14.50;87.54;97190.00;30001;983;1875;-63
2021/09/12 00:05:50;;;;;;;;;;;;;;;14.48;87.49;97181.31;30001;983;1862;-63
2021/09/12 00:06:22;;;;;;;;;;;;;;;14.48;87.73;97185.97;30001;983;1871;-63
2021/09/12 00:06:53;;;;;;;;;;;;;;;14.47;87.64;97179.69;30001;983;1879;-63
2021/09/12 00:07:23;;;;;;;;;;;;;;;14.47;88.06;97185.16;30001;983;1858;-64
2021/09/12 00:07:54;;;;;;;;;;;;;;;14.45;87.94;97181.94;30001;983;1875;-65
2021/09/12 00:08:25;;;;;;;;;;;;;;;14.44;88.43;97191.22;30001;982;1875;-64
2021/09/12 00:08:56;;;;;;;;;;;;;;;14.42;88.23;97185.28;30001;982;1880;-63
2021/09/12 00:09:27;;;;;;;;;;;;;;;14.43;88.37;97186.88;30001;982;1875;-65
2021/09/12 00:09:58;;;;;;;;;;;;;;;14.43;87.91;97189.63;30001;982;1880;-64
2021/09/12 00:10:28;;;;;;;;;;;;;;;14.43;87.91;97191.53;30001;982;1876;-65
2021/09/12 00:10:59;;;;;;;;;;;;;;;14.43;87.97;97186.09;30001;982;1863;-64
2021/09/12 00:11:30;;;;;;;;;;;;;;;14.44;88.23;97184.97;30001;986;1871;-64
2021/09/12 00:12:01;;;;;;;;;;;;;;;14.43;87.85;97189.63;30001;983;1879;-65
2021/09/12 00:12:32;;;;;;;;;;;;;;;14.42;87.81;97182.53;30001;983;1780;-63
2021/09/12 00:13:03;;;;;;;;;;;;;;;14.42;88.06;97188.00;30001;983;1879;-64
2021/09/12 00:13:34;;;;;;;;;;;;;;;14.41;88.42;97186.38;30001;983;1875;-65
2021/09/12 00:14:05;;;;;;;;;;;;;;;14.42;88.54;97185.28;30001;983;1880;-64
2021/09/12 00:14:36;;;;;;;;;;;;;;;14.44;88.77;97191.22;30001;983;1875;-64
2021/09/12 00:15:08;;;;;;;;;;;;;;;14.44;88.01;97191.22;30001;983;1880;-64
2021/09/12 00:15:39;;;;;;;;;;;;;;;14.45;87.70;97187.38;30001;983;1875;-64
2021/09/12 00:16:10;;;;;;;;;;;;;;;14.47;87.72;97187.06;30001;982;1862;-65
2021/09/12 00:16:41;;;;;;;;;;;;;;;14.47;87.56;97189.81;30001;982;1871;-64
2021/09/12 00:17:11;;;;;;;;;;;;;;;14.45;87.30;97181.94;30001;982;1880;-64
2021/09/12 00:17:42;;;;;;;;;;;;;;;14.44;87.70;97185.78;30001;982;1876;-64
2021/09/12 00:18:13;;;;;;;;;;;;;;;14.43;87.54;97183.34;30001;982;1796;-64
2021/09/12 00:18:44;;;;;;;;;;;;;;;14.41;87.82;97189.94;30001;982;1876;-64
2021/09/12 00:19:15;;;;;;;;;;;;;;;14.43;87.79;97188.81;30001;983;1879;-64
2021/09/12 00:19:46;;;;;;;;;;;;;;;14.44;87.64;97185.78;30001;971;1877;-64
2021/09/12 00:20:17;;;;;;;;;;;;;;;14.44;87.37;97185.78;30001;983;1792;-64
2021/09/12 00:20:47;;;;;;;;;;;;;;;14.43;87.27;97173.25;30001;983;1875;-63
2021/09/12 00:21:18;;;;;;;;;;;;;;;14.43;87.27;97189.63;30001;983;1879;-62
2021/09/12 00:21:49;;;;;;;;;;;;;;;14.43;87.74;97186.88;30001;983;1875;-63
2021/09/12 00:22:20;;;;;;;;;;;;;;;14.41;87.60;97180.94;30001;983;1880;-64
2021/09/12 00:22:51;;;;;;;;;;;;;;;14.40;87.64;97187.47;30001;983;1858;-64
2021/09/12 00:23:22;;;;;;;;;;;;;;;14.40;87.70;97182.81;30001;982;1875;-63
2021/09/12 00:23:53;;;;;;;;;;;;;;;14.40;87.89;97185.56;30001;982;1875;-62
2021/09/12 00:24:24;;;;;;;;;;;;;;;14.40;87.55;97180.09;30001;982;1880;-62
2021/09/12 00:24:55;;;;;;;;;;;;;;;14.41;87.34;97186.38;30001;982;1858;-63
2021/09/12 00:25:26;;;;;;;;;;;;;;;14.41;87.30;97178.19;30001;982;1875;-63
2021/09/12 00:25:57;;;;;;;;;;;;;;;14.39;87.59;97177.66;30001;982;1875;-63
2021/09/12 00:26:28;;;;;;;;;;;;;;;14.38;87.45;97181.50;30001;982;1880;-64
2021/09/12 00:27:00;;;;;;;;;;;;;;;14.37;87.72;97179.91;30001;983;1875;-62
2021/09/12 00:27:32;;;;;;;;;;;;;;;14.36;87.48;97178.28;30001;983;1879;-64
2021/09/12 00:28:02;;;;;;;;;;;;;;;14.37;87.78;97180.72;30001;983;1875;-64
2021/09/12 00:28:33;;;;;;;;;;;;;;;14.37;87.43;97175.25;30001;983;1879;-62
2021/09/12 00:29:04;;;;;;;;;;;;;;;14.37;87.68;97175.25;30001;983;1875;-63
2021/09/12 00:29:35;;;;;;;;;;;;;;;14.38;87.46;97176.06;30001;983;1879;-65
2021/09/12 00:30:06;;;;;;;;;;;;;;;14.38;87.03;97176.06;30001;983;1857;-63
2021/09/12 00:30:37;;;;;;;;;;;;;;;14.37;87.26;97180.72;30001;983;1875;-62
2021/09/12 00:31:08;;;;;;;;;;;;;;;14.36;87.50;97183.75;30001;982;1875;-63
2021/09/12 00:31:39;;;;;;;;;;;;;;;14.33;87.37;97178.91;30001;982;1880;-64
2021/09/12 00:32:10;;;;;;;;;;;;;;;14.33;87.32;97178.91;30001;982;1858;-62
2021/09/12 00:32:41;;;;;;;;;;;;;;;14.31;87.59;97181.94;30001;982;1875;-64
2021/09/12 00:33:12;;;;;;;;;;;;;;;14.31;87.92;97183.88;30001;982;1875;-64
2021/09/12 00:33:42;;;;;;;;;;;;;;;14.30;87.78;97182.25;30001;982;1880;-62
2021/09/12 00:34:13;;;;;;;;;;;;;;;14.30;88.03;97190.44;30001;983;1875;-63
2021/09/12 00:34:44;;;;;;;;;;;;;;;14.31;88.09;97187.41;30001;983;1879;-62
2021/09/12 00:35:15;;;;;;;;;;;;;;;14.30;87.63;97190.44;30001;983;1857;-63
2021/09/12 00:35:46;;;;;;;;;;;;;;;14.32;87.46;97185.47;30001;983;1875;-64
2021/09/12 00:36:17;;;;;;;;;;;;;;;14.33;87.57;97189.81;30001;983;1875;-64
2021/09/12 00:36:48;;;;;;;;;;;;;;;14.33;87.41;97187.09;30001;983;1787;-63
2021/09/12 00:37:18;;;;;;;;;;;;;;;14.33;87.39;97190.63;30001;983;1875;-64
2021/09/12 00:37:50;;;;;;;;;;;;;;;14.33;87.43;97190.63;30001;983;1879;-64
2021/09/12 00:38:21;;;;;;;;;;;;;;;14.35;87.32;97190.31;30001;983;1875;-63
2021/09/12 00:38:52;;;;;;;;;;;;;;;14.34;87.03;97191.44;30001;982;1880;-63
2021/09/12 00:39:23;;;;;;;;;;;;;;;14.35;87.08;97187.59;30001;982;1875;-63
2021/09/12 00:39:54;;;;;;;;;;;;;;;14.35;87.04;97190.31;30001;982;1880;-63
2021/09/12 00:40:25;;;;;;;;;;;;;;;14.34;86.99;97191.44;30001;982;1858;-62
2021/09/12 00:40:56;;;;;;;;;;;;;;;14.33;87.39;97189.81;30001;983;1875;-64
2021/09/12 00:41:33;;;;;;;;;;;;;;;14.33;87.37;97184.38;30001;983;1875;-64
2021/09/12 00:42:04;;;;;;;;;;;;;;;14.33;87.21;97181.63;30001;983;1879;-64
2021/09/12 00:42:35;;;;;;;;;;;;;;;14.33;87.67;97184.38;30001;983;1875;-64
2021/09/12 00:43:06;;;;;;;;;;;;;;;14.32;87.42;97185.47;30001;983;1879;-63
2021/09/12 00:43:36;;;;;;;;;;;;;;;14.33;87.64;97189.81;30001;983;1875;-65
2021/09/12 00:44:10;;;;;;;;;;;;;;;14.32;87.37;97186.28;30001;983;1879;-64
2021/09/12 00:44:41;;;;;;;;;;;;;;;14.33;87.52;97189.81;30001;983;1875;-64
2021/09/12 00:45:12;;;;;;;;;;;;;;;14.32;87.34;97182.75;30001;983;1879;-63
2021/09/12 00:45:42;;;;;;;;;;;;;;;14.27;87.50;97188.31;30001;983;1857;-63
2021/09/12 00:46:13;;;;;;;;;;;;;;;14.21;87.70;97192.28;30001;982;1875;-64
2021/09/12 00:46:46;;;;;;;;;;;;;;;14.18;88.22;97187.47;30001;982;1875;-63
2021/09/12 00:47:17;;;;;;;;;;;;;;;14.14;88.49;97181.00;30001;982;1880;-64
2021/09/12 00:47:47;;;;;;;;;;;;;;;14.13;88.64;97180.22;30001;982;1875;-64
2021/09/12 00:48:19;;;;;;;;;;;;;;;14.14;88.31;97181.00;30001;982;1880;-64
2021/09/12 00:48:50;;;;;;;;;;;;;;;14.17;88.31;97180.41;30001;983;1875;-64
2021/09/12 00:49:21;;;;;;;;;;;;;;;14.15;88.20;97180.72;30001;983;1879;-64
2021/09/12 00:49:52;;;;;;;;;;;;;;;14.17;88.45;97185.84;30001;983;1875;-63
2021/09/12 00:50:23;;;;;;;;;;;;;;;14.16;88.11;97184.25;30001;983;1862;-64
2021/09/12 00:50:54;;;;;;;;;;;;;;;14.16;87.97;97178.78;30001;983;1853;-64
2021/09/12 00:51:24;;;;;;;;;;;;;;;14.17;88.06;97177.66;30001;983;1879;-62
2021/09/12 00:51:56;;;;;;;;;;;;;;;14.19;88.05;97178.16;30001;983;1875;-63
2021/09/12 00:52:28;;;;;;;;;;;;;;;14.19;87.78;97180.91;30001;983;1879;-64
2021/09/12 00:53:01;;;;;;;;;;;;;;;14.17;87.50;97180.41;30001;983;1875;-64
2021/09/12 00:53:36;;;;;;;;;;;;;;;14.15;87.83;97188.87;30001;982;1879;-64
2021/09/12 00:54:12;;;;;;;;;;;;;;;14.17;87.92;97180.41;30001;982;1875;-63
2021/09/12 00:54:44;;;;;;;;;;;;;;;14.19;87.77;97183.63;30001;982;1880;-62
2021/09/12 00:55:15;;;;;;;;;;;;;;;14.19;87.70;97178.16;30001;982;1876;-63
2021/09/12 00:55:48;;;;;;;;;;;;;;;14.19;87.47;97184.44;30001;982;1862;-63
2021/09/12 00:56:19;;;;;;;;;;;;;;;14.21;87.44;97181.37;30001;983;1870;-64
2021/09/12 00:56:53;;;;;;;;;;;;;;;14.21;87.59;97178.63;30001;983;1879;-63
2021/09/12 00:57:24;;;;;;;;;;;;;;;14.20;87.69;97183.31;30001;983;1875;-63
2021/09/12 00:57:56;;;;;;;;;;;;;;;14.20;87.60;97182.50;30001;983;1879;-62
2021/09/12 00:58:27;;;;;;;;;;;;;;;14.21;87.56;97182.19;30001;983;1875;-62
2021/09/12 00:58:59;;;;;;;;;;;;;;;14.22;87.78;97178.34;30001;983;1862;-62
2021/09/12 00:59:31;;;;;;;;;;;;;;;14.22;87.42;97185.72;30001;983;1871;-63
2021/09/12 01:00:04;;;;;;;;;;;;;;;14.22;87.49;97177.53;30001;987;1871;-64
2021/09/12 01:00:35;;;;;;;;;;;;;;;14.24;87.75;97180.75;30001;983;1879;-63
2021/09/12 01:01:06;;;;;;;;;;;;;;;14.24;87.72;97180.75;30001;982;1875;-63
2021/09/12 01:01:39;;;;;;;;;;;;;;;14.25;87.36;97182.38;30001;982;1880;-63
2021/09/12 01:02:11;;;;;;;;;;;;;;;14.23;87.11;97184.59;30001;982;1875;-63
2021/09/12 01:02:42;;;;;;;;;;;;;;;14.23;87.36;97179.13;30001;982;1880;-63
2021/09/12 01:03:13;;;;;;;;;;;;;;;14.21;87.30;97178.63;30001;982;1875;-63
2021/09/12 01:03:44;;;;;;;;;;;;;;;14.21;87.11;97181.37;30001;983;1879;-63
2021/09/12 01:04:15;;;;;;;;;;;;;;;14.20;87.49;97177.06;30001;983;1857;-64
2021/09/12 01:04:46;;;;;;;;;;;;;;;14.20;87.44;97179.78;30001;983;1875;-63
2021/09/12 01:05:17;;;;;;;;;;;;;;;14.20;87.51;97179.78;30001;983;1875;-64
2021/09/12 01:05:48;;;;;;;;;;;;;;;14.20;87.44;97179.78;30001;983;1879;-64
2021/09/12 01:06:20;;;;;;;;;;;;;;;14.19;87.01;97178.97;30001;983;1875;-62
2021/09/12 01:06:50;;;;;;;;;;;;;;;14.20;87.09;97186.06;30001;983;1879;-64
2021/09/12 01:07:21;;;;;;;;;;;;;;;14.20;86.90;97177.06;30001;983;1875;-64
2021/09/12 01:07:52;;;;;;;;;;;;;;;14.21;86.83;97175.91;30001;983;1879;-63
2021/09/12 01:08:23;;;;;;;;;;;;;;;14.21;86.79;97181.37;30001;983;1875;-64
2021/09/12 01:08:54;;;;;;;;;;;;;;;14.21;86.89;97181.37;30001;982;1862;-63
2021/09/12 01:09:25;;;;;;;;;;;;;;;14.20;86.75;97179.78;30001;982;1871;-64
2021/09/12 01:09:56;;;;;;;;;;;;;;;14.21;86.99;97181.37;30001;982;1880;-59
2021/09/12 01:10:27;;;;;;;;;;;;;;;14.20;86.71;97177.84;30001;982;1875;-62
2021/09/12 01:10:58;;;;;;;;;;;;;;;14.21;86.96;97175.91;30001;982;1880;-63
2021/09/12 01:11:29;;;;;;;;;;;;;;;14.21;86.64;97179.44;30001;983;1875;-59
2021/09/12 01:12:01;;;;;;;;;;;;;;;14.21;86.98;97178.63;30001;983;1879;-62
2021/09/12 01:12:33;;;;;;;;;;;;;;;14.21;86.89;97175.91;30001;983;1857;-62
2021/09/12 01:13:04;;;;;;;;;;;;;;;14.20;86.99;97179.78;30001;983;1875;-63
2021/09/12 01:13:38;;;;;;;;;;;;;;;14.20;86.91;97179.78;30001;983;1875;-63
2021/09/12 01:14:10;;;;;;;;;;;;;;;14.21;86.77;97170.44;30001;983;1879;-62
2021/09/12 01:14:41;;;;;;;;;;;;;;;14.21;86.14;97176.72;30001;983;1875;-64
2021/09/12 01:15:12;;;;;;;;;;;;;;;14.21;86.24;97171.25;30001;983;1879;-63
2021/09/12 01:15:43;;;;;;;;;;;;;;;14.22;85.63;97172.06;30001;982;1858;-63
2021/09/12 01:16:16;;;;;;;;;;;;;;;14.21;85.60;97173.19;30001;982;1875;-63
2021/09/12 01:16:46;;;;;;;;;;;;;;;14.21;85.49;97176.72;30001;982;1875;-64
2021/09/12 01:17:17;;;;;;;;;;;;;;;14.20;85.56;97168.88;30001;982;1880;-63
2021/09/12 01:17:48;;;;;;;;;;;;;;;14.19;86.09;97178.16;30001;982;1875;-63
2021/09/12 01:18:19;;;;;;;;;;;;;;;14.15;86.32;97169.78;30001;982;1880;-64
2021/09/12 01:18:49;;;;;;;;;;;;;;;14.13;86.32;97169.28;30001;983;1875;-63
2021/09/12 01:19:21;;;;;;;;;;;;;;;14.13;86.67;97174.75;30001;983;1879;-62
2021/09/12 01:19:52;;;;;;;;;;;;;;;14.14;86.80;97172.81;30001;983;1875;-62
2021/09/12 01:20:23;;;;;;;;;;;;;;;14.16;86.32;97170.59;30001;986;1879;-64
2021/09/12 01:20:54;;;;;;;;;;;;;;;14.18;86.05;97169.19;30001;983;1857;-63
2021/09/12 01:21:26;;;;;;;;;;;;;;;14.17;85.90;97164.03;30001;983;1875;-62
2021/09/12 01:21:58;;;;;;;;;;;;;;;14.15;85.72;97172.53;30001;983;1875;-63
2021/09/12 01:22:29;;;;;;;;;;;;;;;14.15;85.81;97171.72;30001;983;1879;-63
2021/09/12 01:23:00;;;;;;;;;;;;;;;14.13;85.80;97169.28;30001;982;1875;-63
2021/09/12 01:23:31;;;;;;;;;;;;;;;14.14;86.14;97170.09;30001;982;1879;-63
2021/09/12 01:24:07;;;;;;;;;;;;;;;14.13;86.03;97172.03;30001;982;1875;-64
2021/09/12 01:24:38;;;;;;;;;;;;;;;14.13;85.95;97163.03;30001;982;1879;-63
2021/09/12 01:25:09;;;;;;;;;;;;;;;14.11;85.70;97166.06;30001;982;1876;-63
2021/09/12 01:25:40;;;;;;;;;;;;;;;14.12;85.88;97166.88;30001;982;1863;-63
2021/09/12 01:26:11;;;;;;;;;;;;;;;14.11;86.03;97167.97;30001;982;1871;-63
2021/09/12 01:26:42;;;;;;;;;;;;;;;14.11;86.14;97171.53;30001;983;1879;-63
2021/09/12 01:27:13;;;;;;;;;;;;;;;14.11;86.30;97165.25;30001;983;1875;-63
2021/09/12 01:27:44;;;;;;;;;;;;;;;14.12;85.98;97159.50;30001;983;1879;-63
2021/09/12 01:28:18;;;;;;;;;;;;;;;14.12;85.87;97167.69;30001;983;1875;-61
2021/09/12 01:28:49;;;;;;;;;;;;;;;14.12;86.08;97161.41;30001;983;1880;-63
2021/09/12 01:29:20;;;;;;;;;;;;;;;14.11;85.97;97168.78;30001;983;1858;-63
2021/09/12 01:29:51;;;;;;;;;;;;;;;14.11;86.11;97165.25;30001;983;1875;-63
2021/09/12 01:30:22;;;;;;;;;;;;;;;14.07;86.29;97165.87;30001;983;1875;-63
2021/09/12 01:30:53;;;;;;;;;;;;;;;14.04;86.62;97161.03;30001;982;1880;-64
2021/09/12 01:31:25;;;;;;;;;;;;;;;14.03;86.42;97164.06;30001;982;1876;-62
2021/09/12 01:31:56;;;;;;;;;;;;;;;14.02;86.71;97163.25;30001;982;1880;-63
2021/09/12 01:32:29;;;;;;;;;;;;;;;14.02;86.57;97176.09;30001;982;1875;-62
2021/09/12 01:32:59;;;;;;;;;;;;;;;14.02;86.92;97165.19;30002;807;1013;-63
2021/09/12 01:33:30;;;;;;;;;;;;;;;14.00;86.55;97160.03;30001;982;1876;-62
2021/09/12 01:34:01;;;;;;;;;;;;;;;14.00;86.60;97167.41;30001;983;1862;-63
2021/09/12 01:34:32;;;;;;;;;;;;;;;13.97;86.77;97157.91;30001;983;1871;-63
2021/09/12 01:35:04;;;;;;;;;;;;;;;13.96;86.84;97166.41;30001;983;1879;-63
2021/09/12 01:35:35;;;;;;;;;;;;;;;13.96;86.90;97169.94;30001;983;1857;-64
2021/09/12 01:36:05;;;;;;;;;;;;;;;13.97;86.91;97160.63;30001;983;1875;-63
2021/09/12 01:36:36;;;;;;;;;;;;;;;13.97;86.81;97166.09;30001;983;1875;-64
2021/09/12 01:37:07;;;;;;;;;;;;;;;13.98;87.02;97161.44;30001;983;1880;-63
2021/09/12 01:37:38;;;;;;;;;;;;;;;13.98;86.65;97169.62;30001;983;1875;-63
2021/09/12 01:38:09;;;;;;;;;;;;;;;13.98;86.76;97166.91;30001;982;1880;-63
2021/09/12 01:38:39;;;;;;;;;;;;;;;13.98;86.94;97166.91;30001;982;1858;-63
2021/09/12 01:39:10;;;;;;;;;;;;;;;13.98;86.88;97167.72;30001;982;1876;-63
2021/09/12 01:39:41;;;;;;;;;;;;;;;13.97;86.58;97166.09;30001;982;1876;-63
2021/09/12 01:40:12;;;;;;;;;;;;;;;13.98;86.90;97167.72;30001;982;1880;-63
2021/09/12 01:40:43;;;;;;;;;;;;;;;13.98;86.59;97172.34;30001;982;1876;-63
2021/09/12 01:41:14;;;;;;;;;;;;;;;13.99;86.48;97171.25;30001;982;1880;-63
2021/09/12 01:41:45;;;;;;;;;;;;;;;13.98;86.43;97164.16;30001;983;1875;-64
2021/09/12 01:42:16;;;;;;;;;;;;;;;13.99;85.98;97169.31;30001;983;1879;-63
2021/09/12 01:42:47;;;;;;;;;;;;;;;13.97;86.42;97171.56;30001;986;1777;-62
2021/09/12 01:43:21;;;;;;;;;;;;;;;13.96;86.39;97169.94;30001;983;1754;-63
2021/09/12 01:43:54;;;;;;;;;;;;;;;13.95;86.26;97178.44;30001;983;1871;-64
2021/09/12 01:44:24;;;;;;;;;;;;;;;13.93;86.34;97173.28;30001;983;1880;-62
2021/09/12 01:44:55;;;;;;;;;;;;;;;13.91;86.64;97170.03;30001;983;1875;-63
2021/09/12 01:45:26;;;;;;;;;;;;;;;13.90;86.43;97179.34;30001;983;1880;-63
2021/09/12 01:45:57;;;;;;;;;;;;;;;13.90;86.60;97173.87;30001;982;1875;-63
2021/09/12 01:46:28;;;;;;;;;;;;;;;13.90;86.70;97171.16;30001;982;1862;-63
2021/09/12 01:46:59;;;;;;;;;;;;;;;13.92;86.60;97173.59;30001;982;1871;-62
2021/09/12 01:47:30;;;;;;;;;;;;;;;13.92;86.32;97170.84;30001;982;1880;-64
2021/09/12 01:48:01;;;;;;;;;;;;;;;13.91;86.32;97178.22;30001;983;1875;-63
2021/09/12 01:48:32;;;;;;;;;;;;;;;13.90;86.32;97171.16;30001;983;1879;-64
2021/09/12 01:49:04;;;;;;;;;;;;;;;13.90;86.46;97171.16;30001;983;1875;-62
2021/09/12 01:49:35;;;;;;;;;;;;;;;13.91;86.21;97167.31;30001;983;1862;-63
2021/09/12 01:50:06;;;;;;;;;;;;;;;13.91;86.08;97163.78;30001;983;1870;-63
2021/09/12 01:50:37;;;;;;;;;;;;;;;13.91;86.22;97166.50;30001;983;1848;-63
2021/09/12 01:51:08;;;;;;;;;;;;;;;13.92;86.24;97168.13;30001;983;1875;-63
2021/09/12 01:51:39;;;;;;;;;;;;;;;13.92;86.18;97170.84;30001;983;1862;-62
2021/09/12 01:52:10;;;;;;;;;;;;;;;13.91;86.10;97164.59;30001;983;1871;-63
2021/09/12 01:52:42;;;;;;;;;;;;;;;13.93;85.83;97169.75;30001;983;1880;-63
2021/09/12 01:53:12;;;;;;;;;;;;;;;13.93;85.79;97164.28;30001;982;1875;-62
2021/09/12 01:53:43;;;;;;;;;;;;;;;13.92;85.70;97166.22;30001;982;1862;-62
2021/09/12 01:54:14;;;;;;;;;;;;;;;13.93;85.96;97164.28;30001;982;1871;-59
2021/09/12 01:54:45;;;;;;;;;;;;;;;13.94;85.97;97161.25;30001;982;1880;-62
2021/09/12 01:55:15;;;;;;;;;;;;;;;13.95;85.99;97164.78;30001;982;1876;-61
2021/09/12 01:55:46;;;;;;;;;;;;;;;13.95;86.01;97167.50;30001;983;1879;-63
2021/09/12 01:56:18;;;;;;;;;;;;;;;13.94;85.85;97166.72;30001;983;1875;-63
2021/09/12 01:56:49;;;;;;;;;;;;;;;13.94;86.04;97166.72;30001;983;1879;-64
2021/09/12 01:57:20;;;;;;;;;;;;;;;13.94;86.14;97163.16;30001;983;1875;-62
2021/09/12 01:57:51;;;;;;;;;;;;;;;13.94;86.15;97166.72;30001;983;1862;-62
2021/09/12 01:58:21;;;;;;;;;;;;;;;13.93;86.06;97159.63;30001;983;1871;-62
2021/09/12 01:58:52;;;;;;;;;;;;;;;13.92;85.97;97155.28;30001;983;1862;-62
2021/09/12 01:59:23;;;;;;;;;;;;;;;13.90;86.01;97157.53;30001;983;1871;-63
2021/09/12 01:59:54;;;;;;;;;;;;;;;13.91;86.12;97159.13;30001;983;1880;-63
2021/09/12 02:00:24;;;;;;;;;;;;;;;13.92;86.47;97166.22;30001;983;1875;-63
2021/09/12 02:00:56;;;;;;;;;;;;;;;13.91;86.32;97156.41;30001;982;1880;-63
2021/09/12 02:01:27;;;;;;;;;;;;;;;13.90;86.25;97168.44;30001;982;1876;-63
2021/09/12 02:01:58;;;;;;;;;;;;;;;13.89;86.69;97166.81;30001;982;1880;-64
2021/09/12 02:02:28;;;;;;;;;;;;;;;13.86;86.61;97158.47;30001;982;1783;-64
2021/09/12 02:02:59;;;;;;;;;;;;;;;13.84;86.79;97166.97;30001;982;1863;-63
2021/09/12 02:03:31;;;;;;;;;;;;;;;13.81;86.83;97167.56;30001;983;1870;-62
2021/09/12 02:04:01;;;;;;;;;;;;;;;13.81;87.21;97161.31;30001;983;1879;-63
2021/09/12 02:04:32;;;;;;;;;;;;;;;13.80;87.07;97160.50;30001;983;1875;-64
2021/09/12 02:05:04;;;;;;;;;;;;;;;13.79;87.40;97166.25;30001;983;1879;-63
2021/09/12 02:05:34;;;;;;;;;;;;;;;13.78;87.28;97156.47;30001;983;1875;-63
2021/09/12 02:06:05;;;;;;;;;;;;;;;13.75;87.25;97163.34;30001;983;1879;-63
2021/09/12 02:06:36;;;;;;;;;;;;;;;13.73;87.70;97160.91;30001;983;1875;-63
2021/09/12 02:07:07;;;;;;;;;;;;;;;13.72;88.06;97163.94;30001;983;1880;-62
2021/09/12 02:07:38;;;;;;;;;;;;;;;13.71;87.87;97162.34;30001;982;1875;-63
2021/09/12 02:08:08;;;;;;;;;;;;;;;13.69;88.01;97162.62;30001;982;1862;-63
2021/09/12 02:08:39;;;;;;;;;;;;;;;13.68;88.21;97160.22;30001;982;1871;-62
2021/09/12 02:09:10;;;;;;;;;;;;;;;13.67;88.23;97169.50;30001;982;1880;-62
2021/09/12 02:09:41;;;;;;;;;;;;;;;13.65;88.52;97163.53;30001;982;1876;-64
2021/09/12 02:10:13;;;;;;;;;;;;;;;13.64;88.55;97162.75;30001;982;1880;-64
2021/09/12 02:10:43;;;;;;;;;;;;;;;13.64;88.42;97161.94;30001;983;1875;-62
2021/09/12 02:11:14;;;;;;;;;;;;;;;13.63;88.57;97163.84;30001;983;1879;-63
2021/09/12 02:11:45;;;;;;;;;;;;;;;13.64;88.78;97167.38;30002;786;1014;-63
2021/09/12 02:12:16;;;;;;;;;;;;;;;13.64;88.75;97161.94;30001;983;1875;-63
2021/09/12 02:12:47;;;;;;;;;;;;;;;13.65;88.67;97169.00;30001;983;1875;-63
2021/09/12 02:13:17;;;;;;;;;;;;;;;13.65;88.40;97174.47;30001;983;1880;-63
2021/09/12 02:13:49;;;;;;;;;;;;;;;13.65;88.45;97169.00;30001;983;1875;-64
2021/09/12 02:14:20;;;;;;;;;;;;;;;13.64;88.42;97170.12;30001;983;1880;-63
2021/09/12 02:14:51;;;;;;;;;;;;;;;13.63;88.42;97171.22;30001;983;1875;-63
2021/09/12 02:15:22;;;;;;;;;;;;;;;13.63;88.51;97168.50;30001;982;1880;-63
2021/09/12 02:15:53;;;;;;;;;;;;;;;13.64;88.20;97165.47;30001;982;1876;-62
2021/09/12 02:16:24;;;;;;;;;;;;;;;13.65;88.39;97169.00;30001;982;1880;-63
2021/09/12 02:16:55;;;;;;;;;;;;;;;13.66;88.02;97159.72;30001;982;1858;-63
2021/09/12 02:17:25;;;;;;;;;;;;;;;13.65;88.21;97163.53;30001;983;1875;-63
2021/09/12 02:17:56;;;;;;;;;;;;;;;13.64;87.83;97167.38;30001;983;1875;-63
2021/09/12 02:18:27;;;;;;;;;;;;;;;13.61;87.90;97163.34;30001;983;1879;-63
2021/09/12 02:18:58;;;;;;;;;;;;;;;13.60;88.04;97172.63;30001;983;1875;-64
2021/09/12 02:19:29;;;;;;;;;;;;;;;13.59;88.22;97170.22;30001;983;1879;-63
2021/09/12 02:20:00;;;;;;;;;;;;;;;13.58;88.29;97169.41;30001;983;1875;-63
2021/09/12 02:20:31;;;;;;;;;;;;;;;13.59;88.65;97160.13;30001;983;1879;-63
2021/09/12 02:21:02;;;;;;;;;;;;;;;13.60;88.16;97172.63;30001;983;1875;-62
2021/09/12 02:21:33;;;;;;;;;;;;;;;13.62;88.28;97166.88;30001;983;1880;-64
2021/09/12 02:22:06;;;;;;;;;;;;;;;13.63;87.91;97165.78;30001;983;1858;-64
2021/09/12 02:22:37;;;;;;;;;;;;;;;13.63;88.06;97165.78;30001;982;1875;-60
2021/09/12 02:23:08;;;;;;;;;;;;;;;13.62;88.07;97161.44;30001;982;1858;-64
2021/09/12 02:23:39;;;;;;;;;;;;;;;13.61;88.12;97168.00;30001;982;1876;-62
2021/09/12 02:24:10;;;;;;;;;;;;;;;13.59;87.91;97165.56;30001;982;1876;-64
2021/09/12 02:24:41;;;;;;;;;;;;;;;13.59;88.29;97165.56;30001;982;1880;-63
2021/09/12 02:25:12;;;;;;;;;;;;;;;13.58;88.16;97163.16;30001;983;1875;-63
2021/09/12 02:25:43;;;;;;;;;;;;;;;13.57;88.27;97167.00;30001;983;1879;-64
2021/09/12 02:26:14;;;;;;;;;;;;;;;13.56;88.28;97159.91;30001;983;1793;-62
2021/09/12 02:26:45;;;;;;;;;;;;;;;13.55;88.50;97169.22;30001;983;1879;-64
2021/09/12 02:27:15;;;;;;;;;;;;;;;13.52;89.00;97157.00;30001;983;1857;-62
2021/09/12 02:27:46;;;;;;;;;;;;;;;13.52;88.89;97161.62;30001;983;1875;-61
2021/09/12 02:28:18;;;;;;;;;;;;;;;13.54;88.73;97170.31;30001;983;1858;-62
2021/09/12 02:28:49;;;;;;;;;;;;;;;13.52;88.77;97158.91;30001;983;1875;-65
2021/09/12 02:29:20;;;;;;;;;;;;;;;13.51;88.60;97158.13;30001;983;1875;-64
2021/09/12 02:29:51;;;;;;;;;;;;;;;13.51;88.67;97166.31;30001;983;1880;-63
2021/09/12 02:30:21;;;;;;;;;;;;;;;13.51;88.49;97162.78;30001;982;1875;-64
2021/09/12 02:30:52;;;;;;;;;;;;;;;13.51;88.78;97162.78;30001;982;1880;-64
2021/09/12 02:31:23;;;;;;;;;;;;;;;13.51;88.75;97157.31;30001;982;1858;-64
2021/09/12 02:31:54;;;;;;;;;;;;;;;13.52;88.44;97164.38;30001;982;1876;-63
2021/09/12 02:32:25;;;;;;;;;;;;;;;13.52;88.16;97158.91;30001;982;1876;-63
2021/09/12 02:32:56;;;;;;;;;;;;;;;13.52;88.30;97154.25;30001;983;1879;-62
2021/09/12 02:33:27;;;;;;;;;;;;;;;13.53;88.17;97160.53;30001;983;1857;-63
2021/09/12 02:33:58;;;;;;;;;;;;;;;13.53;87.65;97161.34;30001;983;1857;-63
2021/09/12 02:34:29;;;;;;;;;;;;;;;13.54;87.66;97157.50;30001;983;1875;-63
2021/09/12 02:35:00;;;;;;;;;;;;;;;13.55;87.71;97158.31;30001;983;1879;-63
2021/09/12 02:35:31;;;;;;;;;;;;;;;13.54;87.47;97157.50;30001;983;1875;-60
2021/09/12 02:36:03;;;;;;;;;;;;;;;13.54;87.81;97165.69;30001;983;1880;-62
2021/09/12 02:36:34;;;;;;;;;;;;;;;13.53;87.85;97155.06;30001;983;1875;-64
2021/09/12 02:37:04;;;;;;;;;;;;;;;13.52;87.58;97154.25;30001;983;1880;-60
2021/09/12 02:37:35;;;;;;;;;;;;;;;13.51;87.53;97163.59;30001;982;1875;-63
2021/09/12 02:38:06;;;;;;;;;;;;;;;13.51;87.83;97151.88;30001;982;1880;-63
2021/09/12 02:38:37;;;;;;;;;;;;;;;13.51;87.69;97151.88;30001;986;1876;-63
2021/09/12 02:39:08;;;;;;;;;;;;;;;13.51;87.80;97155.41;30001;982;1862;-63
2021/09/12 02:39:38;;;;;;;;;;;;;;;13.50;88.06;97156.53;30001;982;1871;-62
2021/09/12 02:40:10;;;;;;;;;;;;;;;13.50;88.01;97150.25;30001;983;1786;-62
2021/09/12 02:40:41;;;;;;;;;;;;;;;13.49;87.74;97156.81;30001;983;1875;-63
2021/09/12 02:41:12;;;;;;;;;;;;;;;13.50;88.13;97150.25;30001;983;1879;-63
2021/09/12 02:41:43;;;;;;;;;;;;;;;13.50;87.81;97155.72;30001;983;1875;-61
2021/09/12 02:42:15;;;;;;;;;;;;;;;13.50;87.87;97150.25;30001;983;1879;-64
2021/09/12 02:42:46;;;;;;;;;;;;;;;13.51;87.92;97152.69;30001;983;1858;-63
2021/09/12 02:43:17;;;;;;;;;;;;;;;13.52;87.69;97148.81;30001;983;1875;-62
2021/09/12 02:43:48;;;;;;;;;;;;;;;13.54;87.57;97146.59;30001;983;1875;-64
2021/09/12 02:44:19;;;;;;;;;;;;;;;13.52;87.68;97140.63;30001;983;1880;-63
2021/09/12 02:44:50;;;;;;;;;;;;;;;13.53;87.42;97146.91;30001;983;1875;-63
2021/09/12 02:45:20;;;;;;;;;;;;;;;13.50;87.85;97145.63;30001;982;1880;-64
2021/09/12 02:45:51;;;;;;;;;;;;;;;13.49;87.75;97154.91;30001;982;1875;-64
2021/09/12 02:46:22;;;;;;;;;;;;;;;13.48;88.06;97141.56;30001;982;1880;-64